Time;durP1;ratioP1;P1;durP2;ratioP2;P2;SDS_P1;SDS_P2;PMS_P1;PMS_P2;Temp;Humidity;BMP_temperature;BMP_pressure;BME280_temperature;BME280_humidity;BME280_pressure;Samples;Min_cycle;Max_cycle;Signal;HPM_P1;HPM_P2
2022/10/20 00:00:16;;;;;;;25.40;18.30;;;;;;;-141.28;100.00;50078.97;5133453;27;20221;-76
2022/10/20 00:02:45;;;;;;;25.27;18.60;;;;;;;-141.28;100.00;50061.31;5137613;27;20251;-79
2022/10/20 00:05:14;;;;;;;27.50;18.83;;;;;;;-141.28;100.00;50067.22;5133851;27;20258;-77
2022/10/20 00:07:41;;;;;;;25.70;19.47;;;;;;;-141.28;100.00;50045.63;5134563;27;20217;-79
2022/10/20 00:10:09;;;;;;;29.57;20.13;;;;;;;-141.28;100.00;50027.97;5115141;27;20747;-75
2022/10/20 00:12:36;;;;;;;30.23;20.53;;;;;;;-141.28;100.00;50000.47;5134828;27;20649;-76
2022/10/20 00:15:03;;;;;;;25.40;20.17;;;;;;;-141.28;100.00;50016.19;5134874;27;20229;-75
2022/10/20 00:17:30;;;;;;;27.87;19.73;;;;;;;-141.28;100.00;50020.09;5135895;27;20209;-76
2022/10/20 00:19:59;;;;;;;31.73;19.93;;;;;;;-141.28;100.00;49996.56;5118397;27;20205;-77
2022/10/20 00:22:26;;;;;;;28.13;20.37;;;;;;;-141.28;100.00;49965.16;5134512;27;20205;-76
2022/10/20 00:24:53;;;;;;;27.80;19.97;;;;;;;-141.28;100.00;49941.59;5133279;27;20250;-75
2022/10/20 00:27:20;;;;;;;24.40;18.93;;;;;;;-141.28;100.00;49939.63;5133327;27;20202;-77
2022/10/20 00:29:48;;;;;;;27.43;19.57;;;;;;;-141.28;100.00;49910.19;5133571;27;20194;-76
2022/10/20 00:32:15;;;;;;;25.63;18.33;;;;;;;-141.28;100.00;49892.53;5133014;27;20281;-76
2022/10/20 00:34:42;;;;;;;32.47;18.83;;;;;;;-141.28;100.00;49863.09;5133366;27;20190;-79
2022/10/20 00:37:10;;;;;;;25.70;17.63;;;;;;;-141.28;100.00;49880.75;5133190;27;20285;-77
2022/10/20 00:39:37;;;;;;;23.30;17.67;;;;;;;-141.28;100.00;49855.25;5133427;27;20198;-78
2022/10/20 00:42:05;;;;;;;22.10;16.87;;;;;;;-141.28;100.00;49845.44;5132941;27;20586;-80
2022/10/20 00:44:52;;;;;;;22.03;16.50;;;;;;;-141.28;100.00;49918.06;5124903;27;20207;-76
2022/10/20 00:47:33;;;;;;;26.27;16.77;;;;;;;-141.28;100.00;49886.66;5130725;27;20194;-77
2022/10/20 00:50:05;;;;;;;24.87;16.20;;;;;;;-141.28;100.00;49925.91;5133297;27;20202;-78
2022/10/20 00:52:34;;;;;;;20.37;14.70;;;;;;;-141.28;100.00;49904.31;5133031;27;20749;-78
2022/10/20 00:55:02;;;;;;;21.40;14.50;;;;;;;-141.28;100.00;49886.66;5132781;27;20209;-76
2022/10/20 00:57:30;;;;;;;19.90;13.93;;;;;;;-141.28;100.00;49878.81;5123010;27;20213;-77
2022/10/20 00:59:57;;;;;;;18.63;13.50;;;;;;;-141.28;100.00;49878.81;5133112;27;20305;-76
2022/10/20 01:02:24;;;;;;;22.10;14.27;;;;;;;-141.28;100.00;49855.25;5132854;27;20202;-77
2022/10/20 01:04:52;;;;;;;17.47;13.47;;;;;;;-141.28;100.00;49863.09;5132670;27;20230;-76
2022/10/20 01:07:20;;;;;;;18.37;12.77;;;;;;;-141.28;100.00;49841.50;5132903;27;20209;-79
2022/10/20 01:09:49;;;;;;;25.33;13.03;;;;;;;-141.28;100.00;49870.94;5132831;27;20206;-75
2022/10/20 01:12:26;;;;;;;25.63;12.60;;;;;;;-141.28;100.00;49878.81;5131529;27;20194;-76
2022/10/20 01:15:02;;;;;;;16.70;12.80;;;;;;;-141.28;100.00;49859.19;5132971;27;20202;-79
2022/10/20 01:17:39;;;;;;;21.27;12.67;;;;;;;-141.28;100.00;49886.66;5132802;28;20197;-78
2022/10/20 01:20:44;;;;;;;14.60;12.07;;;;;;;-141.28;100.00;49961.22;5134349;28;20198;-76
2022/10/20 01:23:56;;;;;;;18.73;12.10;;;;;;;-141.28;100.00;50035.81;5121554;28;20206;-76
2022/10/20 01:26:55;;;;;;;18.47;11.77;;;;;;;-141.28;100.00;50102.53;5132704;28;20210;-76
2022/10/20 01:29:28;;;;;;;15.83;10.83;;;;;;;-141.28;100.00;50059.34;5132009;28;20206;-75
2022/10/20 01:32:05;;;;;;;16.27;12.50;;;;;;;-141.28;100.00;50037.78;5132606;28;20198;-76
2022/10/20 01:34:41;;;;;;;14.50;10.87;;;;;;;-141.28;100.00;50024.03;5132666;28;20209;-77
2022/10/20 01:37:15;;;;;;;14.70;11.20;;;;;;;-141.28;100.00;49994.59;5132275;28;20776;-77
2022/10/20 01:39:49;;;;;;;14.37;11.30;;;;;;;-141.28;100.00;49998.50;5132503;28;20261;-77
2022/10/20 01:42:21;;;;;;;13.07;10.83;;;;;;;-141.28;100.00;49961.22;5126685;28;20209;-78
2022/10/20 01:44:52;;;;;;;14.03;11.23;;;;;;;-141.28;100.00;49969.06;5132310;28;20559;-78
2022/10/20 01:47:22;;;;;;;16.37;10.90;;;;;;;-141.28;100.00;49984.78;5132238;28;20202;-79
2022/10/20 01:49:50;;;;;;;13.73;11.03;;;;;;;-141.28;100.00;49992.63;5132187;28;20231;-74
2022/10/20 01:52:17;;;;;;;14.93;10.57;;;;;;;-141.28;100.00;49953.38;5132480;28;20238;-76
2022/10/20 01:54:44;;;;;;;18.83;11.10;;;;;;;-141.28;100.00;49992.63;5132354;28;20202;-80
2022/10/20 01:57:26;;;;;;;15.37;10.20;;;;;;;-141.28;100.00;49957.31;5132348;28;20226;-78
2022/10/20 02:00:03;;;;;;;17.77;11.17;;;;;;;-141.28;100.00;49969.06;5132082;28;20242;-77
2022/10/20 02:02:51;;;;;;;14.43;10.47;;;;;;;-141.28;100.00;50020.09;5132789;28;20213;-76
2022/10/20 02:05:45;;;;;;;14.43;10.10;;;;;;;-141.28;100.00;50016.19;5120060;28;20684;-76
2022/10/20 02:08:16;;;;;;;19.77;11.00;;;;;;;-141.28;100.00;50004.41;5131754;28;20198;-78
2022/10/20 02:10:47;;;;;;;15.20;10.63;;;;;;;-141.28;100.00;49973.00;5132270;28;20221;-79
2022/10/20 02:13:18;;;;;;;15.47;10.33;;;;;;;-141.28;100.00;49921.97;5131875;28;20532;-80
2022/10/20 02:16:00;;;;;;;14.13;10.40;;;;;;;-141.28;100.00;49961.22;5131737;28;20766;-79
2022/10/20 02:18:31;;;;;;;18.43;11.37;;;;;;;-141.28;100.00;49886.66;5132005;28;20676;-78
2022/10/20 02:21:00;;;;;;;18.60;11.93;;;;;;;-141.28;100.00;49900.38;5131886;28;20202;-79
2022/10/20 02:23:30;;;;;;;14.57;11.17;;;;;;;-141.28;100.00;49841.50;5134352;27;20194;-75
2022/10/20 02:25:59;;;;;;;15.20;11.30;;;;;;;-141.28;100.00;49819.94;5139680;27;20260;-77
2022/10/20 02:28:28;;;;;;;17.83;11.80;;;;;;;-141.28;100.00;49788.53;5139522;27;20198;-77
2022/10/20 02:30:57;;;;;;;15.57;12.10;;;;;;;-141.28;100.00;49782.63;5138752;27;20202;-75
2022/10/20 02:33:24;;;;;;;17.43;12.17;;;;;;;-141.28;100.00;49751.25;5137979;27;20210;-77
2022/10/20 02:35:57;;;;;;;14.23;10.90;;;;;;;-141.28;100.00;49733.56;5136906;27;20704;-77
2022/10/20 02:38:24;;;;;;;15.70;11.97;;;;;;;-141.28;100.00;49702.19;5139464;27;20202;-80
2022/10/20 02:40:52;;;;;;;24.37;13.07;;;;;;;-141.28;100.00;49686.47;5135885;27;20287;-79
2022/10/20 02:43:19;;;;;;;19.43;12.43;;;;;;;-141.28;100.00;49666.84;5122618;27;20213;-79
2022/10/20 02:45:46;;;;;;;17.37;11.53;;;;;;;-141.28;100.00;49653.13;5135237;27;20202;-78
2022/10/20 02:48:15;;;;;;;20.70;11.90;;;;;;;-141.28;100.00;49633.50;5135843;27;20210;-75
2022/10/20 02:50:42;;;;;;;21.87;12.67;;;;;;;-141.28;100.00;49617.78;5135139;27;20206;-80
2022/10/20 02:53:09;;;;;;;16.63;11.60;;;;;;;-141.28;100.00;49586.41;5135505;27;20198;-77
2022/10/20 02:55:36;;;;;;;15.93;11.77;;;;;;;-141.28;100.00;49602.09;5135331;27;20198;-77
2022/10/20 02:58:03;;;;;;;17.37;11.33;;;;;;;-141.28;100.00;49574.63;5135490;27;20198;-76
2022/10/20 03:00:30;;;;;;;18.27;11.80;;;;;;;-141.28;100.00;49564.81;5135194;27;20287;-80
2022/10/20 03:02:57;;;;;;;14.20;11.47;;;;;;;-141.28;100.00;49551.06;5137995;27;20247;-76
2022/10/20 03:05:26;;;;;;;17.83;11.50;;;;;;;-141.28;100.00;49535.38;5138334;27;20224;-77
2022/10/20 03:07:54;;;;;;;16.10;11.30;;;;;;;-141.28;100.00;49533.41;5137500;27;20277;-77
2022/10/20 03:10:20;;;;;;;17.40;11.37;;;;;;;-141.28;100.00;49509.88;5136590;27;20233;-76
2022/10/20 03:12:47;;;;;;;15.47;11.03;;;;;;;-141.28;100.00;49523.59;5137221;27;20194;-77
2022/10/20 03:15:15;;;;;;;14.53;11.10;;;;;;;-141.28;100.00;49502.03;5136919;27;20202;-76
2022/10/20 03:17:42;;;;;;;14.40;10.97;;;;;;;-141.28;100.00;49447.06;5140528;27;20290;-76
2022/10/20 03:20:10;;;;;;;16.20;10.47;;;;;;;-141.28;100.00;49474.53;5147664;27;20191;-79
2022/10/20 03:22:38;;;;;;;17.40;12.50;;;;;;;-141.28;100.00;49496.13;5156763;27;20193;-74
2022/10/20 03:25:06;;;;;;;15.53;11.20;;;;;;;-141.28;100.00;49525.56;5138576;27;20258;-81
2022/10/20 03:27:33;;;;;;;20.93;11.30;;;;;;;-141.28;100.00;49480.44;5136645;27;20213;-77
2022/10/20 03:29:59;;;;;;;16.20;11.00;;;;;;;-141.28;100.00;49472.59;5134861;27;20209;-77
2022/10/20 03:32:26;;;;;;;18.63;11.37;;;;;;;-141.28;100.00;49462.78;5134942;27;20202;-78
2022/10/20 03:34:55;;;;;;;13.80;10.90;;;;;;;-141.28;100.00;49502.03;5134211;27;20198;-78
2022/10/20 03:37:22;;;;;;;16.87;11.60;;;;;;;-141.28;100.00;49480.44;5134683;27;20724;-78
2022/10/20 03:39:51;;;;;;;17.70;11.47;;;;;;;-141.28;100.00;49484.34;5134517;27;20193;-78
2022/10/20 03:42:17;;;;;;;17.90;11.73;;;;;;;-141.28;100.00;49470.63;5135303;27;20210;-78
2022/10/20 03:44:45;;;;;;;18.83;11.63;;;;;;;-141.28;100.00;49466.69;5135746;27;20195;-76
2022/10/20 03:47:12;;;;;;;16.47;11.53;;;;;;;-141.28;100.00;49466.69;5134957;27;20206;-79
2022/10/20 03:49:40;;;;;;;18.87;10.97;;;;;;;-141.28;100.00;49462.78;5134662;27;20688;-78
2022/10/20 03:52:07;;;;;;;19.37;13.83;;;;;;;-141.28;100.00;49449.03;5134531;27;20210;-75
2022/10/20 03:54:36;;;;;;;15.00;11.70;;;;;;;-141.28;100.00;49445.13;5135407;27;20206;-76
2022/10/20 03:57:05;;;;;;;17.63;11.67;;;;;;;-141.28;100.00;49443.16;5116077;27;20226;-76
2022/10/20 03:59:33;;;;;;;19.90;12.60;;;;;;;-141.28;100.00;49437.25;5134765;27;20287;-77
2022/10/20 04:02:00;;;;;;;20.20;11.33;;;;;;;-141.28;100.00;49399.97;5134011;27;20210;-80
2022/10/20 04:04:27;;;;;;;18.33;12.00;;;;;;;-141.28;100.00;49376.44;5133761;27;20194;-77
2022/10/20 04:06:54;;;;;;;17.73;11.43;;;;;;;-141.28;100.00;49407.84;5134302;27;20213;-75
2022/10/20 04:09:23;;;;;;;16.30;11.47;;;;;;;-141.28;100.00;49384.28;5133548;27;20210;-80
2022/10/20 04:11:50;;;;;;;16.40;10.93;;;;;;;-141.28;100.00;49380.34;5133723;27;20226;-80
2022/10/20 04:14:18;;;;;;;15.57;11.40;;;;;;;-141.28;100.00;49380.34;5133571;27;20201;-77
2022/10/20 04:16:46;;;;;;;19.70;13.13;;;;;;;-141.28;100.00;49392.13;5133412;27;20222;-80
2022/10/20 04:19:14;;;;;;;18.27;12.47;;;;;;;-141.28;100.00;49407.84;5133426;27;20285;-79
2022/10/20 04:21:41;;;;;;;17.40;11.97;;;;;;;-141.28;100.00;49384.28;5133530;27;20198;-77
2022/10/20 04:24:08;;;;;;;23.03;13.77;;;;;;;-141.28;100.00;49372.50;5133485;27;20677;-74
2022/10/20 04:26:36;;;;;;;23.37;11.50;;;;;;;-141.28;100.00;49360.75;5133266;27;20217;-76
2022/10/20 04:29:04;;;;;;;20.10;11.27;;;;;;;-141.28;100.00;49376.44;5132869;27;20198;-78
2022/10/20 04:31:32;;;;;;;18.40;12.53;;;;;;;-141.28;100.00;49376.44;5133475;27;20205;-79
2022/10/20 04:33:59;;;;;;;16.90;11.80;;;;;;;-141.28;100.00;49364.66;5119611;27;20679;-79
2022/10/20 04:36:26;;;;;;;18.50;12.20;;;;;;;-141.28;100.00;49345.03;5132826;27;20234;-76
2022/10/20 04:38:54;;;;;;;18.47;12.80;;;;;;;-141.28;100.00;49352.88;5133503;27;20280;-75
2022/10/20 04:41:21;;;;;;;18.53;12.10;;;;;;;-141.28;100.00;49345.03;5132763;27;20713;-76
2022/10/20 04:43:52;;;;;;;20.03;14.57;;;;;;;-141.28;100.00;49352.88;5132970;27;20251;-78
2022/10/20 04:46:19;;;;;;;20.60;12.03;;;;;;;-141.28;100.00;49345.03;5132369;27;20700;-80
2022/10/20 04:48:48;;;;;;;17.63;12.07;;;;;;;-141.28;100.00;49341.13;5132545;27;20673;-78
2022/10/20 04:51:15;;;;;;;17.47;11.63;;;;;;;-141.28;100.00;49313.66;5133090;27;20198;-75
2022/10/20 04:53:42;;;;;;;18.27;12.90;;;;;;;-141.28;100.00;49358.78;5133456;27;20198;-77
2022/10/20 04:56:17;;;;;;;20.90;12.83;;;;;;;-141.28;100.00;49368.59;5132746;27;20202;-76
2022/10/20 04:58:47;;;;;;;17.63;11.77;;;;;;;-141.28;100.00;49366.63;5133323;27;20201;-76
2022/10/20 05:01:14;;;;;;;17.47;12.27;;;;;;;-141.28;100.00;49352.88;5119563;27;20226;-79
2022/10/20 05:03:41;;;;;;;17.30;12.60;;;;;;;-141.28;100.00;49339.16;5133105;27;20209;-77
2022/10/20 05:06:12;;;;;;;21.57;12.70;;;;;;;-141.28;100.00;49370.53;5132556;27;20214;-75
2022/10/20 05:08:40;;;;;;;21.83;12.13;;;;;;;-141.28;100.00;49360.75;5133100;27;20202;-80
2022/10/20 05:11:08;;;;;;;18.80;12.00;;;;;;;-141.28;100.00;49360.75;5133467;27;20234;-77
2022/10/20 05:13:35;;;;;;;16.67;12.20;;;;;;;-141.28;100.00;49368.59;5135464;27;20202;-75
2022/10/20 05:16:02;;;;;;;17.30;11.77;;;;;;;-141.28;100.00;49399.97;5132653;27;20198;-76
2022/10/20 05:18:29;;;;;;;18.40;11.63;;;;;;;-141.28;100.00;49380.34;5133055;27;20632;-76
2022/10/20 05:20:57;;;;;;;15.80;12.10;;;;;;;-141.28;100.00;49407.84;5132516;28;20205;-76
2022/10/20 05:23:26;;;;;;;17.70;11.97;;;;;;;-141.28;100.00;49454.94;5132600;28;20216;-81
2022/10/20 05:25:53;;;;;;;14.60;11.60;;;;;;;-141.28;100.00;49503.97;5132198;28;20209;-74
2022/10/20 05:28:20;;;;;;;17.23;10.33;;;;;;;-141.28;100.00;49592.28;5132224;28;20271;-75
2022/10/20 05:30:47;;;;;;;13.83;10.23;;;;;;;-141.28;100.00;49713.94;5132215;28;20580;-77
2022/10/20 05:33:15;;;;;;;18.17;10.53;;;;;;;-141.28;100.00;49833.66;5132287;28;20206;-77
2022/10/20 05:35:42;;;;;;;13.17;9.47;;;;;;;-141.28;100.00;49867.03;5132390;28;20679;-74
2022/10/20 05:38:09;;;;;;;16.47;10.07;;;;;;;-141.28;100.00;49929.81;5132173;28;20234;-75
2022/10/20 05:40:38;;;;;;;18.00;10.00;;;;;;;-141.28;100.00;50029.91;5132217;28;20194;-77
2022/10/20 05:43:06;;;;;;;14.83;10.00;;;;;;;-141.28;100.00;50173.19;5132454;28;20214;-75
2022/10/20 05:45:33;;;;;;;12.50;9.30;;;;;;;-141.28;100.00;50569.69;5132293;28;20202;-74
2022/10/20 05:48:01;;;;;;;13.77;9.57;;;;;;;-141.28;100.00;50404.81;5132245;28;20198;-78
2022/10/20 05:50:29;;;;;;;13.73;9.00;;;;;;;-141.28;100.00;50349.84;5132278;28;20259;-80
2022/10/20 05:52:57;;;;;;;14.97;9.17;;;;;;;-141.28;100.00;50241.88;5131943;28;20661;-77
2022/10/20 05:55:24;;;;;;;11.60;9.00;;;;;;;-141.28;100.00;50216.38;5132090;27;20680;-76
2022/10/20 05:57:52;;;;;;;11.33;9.27;;;;;;;-141.28;100.00;50334.13;5132311;27;20228;-77
2022/10/20 06:00:28;;;;;;;13.23;9.70;;;;;;;-141.28;100.00;50361.63;5139078;27;20221;-74
2022/10/20 06:02:56;;;;;;;13.87;9.50;;;;;;;-141.28;100.00;50432.28;5114268;27;20209;-74
2022/10/20 06:05:24;;;;;;;12.33;9.80;;;;;;;-141.28;100.00;50630.53;5145533;27;20198;-75
2022/10/20 06:07:53;;;;;;;15.60;9.63;;;;;;;-141.28;100.00;50518.66;5141295;27;20258;-80
2022/10/20 06:10:22;;;;;;;13.67;9.53;;;;;;;-141.28;100.00;50552.00;5136717;27;20718;-77
2022/10/20 06:12:49;;;;;;;14.13;9.80;;;;;;;-141.28;100.00;50530.41;5136841;27;20279;-77
2022/10/20 06:15:17;;;;;;;20.67;11.43;;;;;;;-141.28;100.00;50267.41;5136958;27;20194;-77
2022/10/20 06:17:46;;;;;;;14.60;10.40;;;;;;;-141.28;100.00;50328.25;5135878;27;20241;-74
2022/10/20 06:20:13;;;;;;;16.03;10.80;;;;;;;-141.28;100.00;50381.25;5135935;27;20262;-76
2022/10/20 06:22:40;;;;;;;17.27;10.50;;;;;;;-141.28;100.00;50385.16;5135238;27;20201;-76
2022/10/20 06:25:08;;;;;;;22.10;10.93;;;;;;;-141.28;100.00;50444.06;5135591;27;20231;-80
2022/10/20 06:27:35;;;;;;;16.00;11.17;;;;;;;-141.28;100.00;50440.13;5135536;27;20263;-81
2022/10/20 06:30:03;;;;;;;17.23;11.43;;;;;;;-141.28;100.00;50412.66;5138283;27;20204;-77
2022/10/20 06:32:31;;;;;;;17.80;11.70;;;;;;;-141.28;100.00;50343.94;5135736;27;20203;-77
2022/10/20 06:34:58;;;;;;;14.87;11.40;;;;;;;-141.28;100.00;50389.09;5135386;27;20254;-79
2022/10/20 06:37:25;;;;;;;17.70;12.03;;;;;;;-141.28;100.00;50404.81;5135342;27;20234;-77
2022/10/20 06:39:52;;;;;;;17.33;11.33;;;;;;;-141.28;100.00;50451.91;5135051;27;20293;-77
2022/10/20 06:42:21;;;;;;;19.10;12.33;;;;;;;-141.28;100.00;50365.53;5135565;27;20263;-77
2022/10/20 06:44:48;;;;;;;14.87;11.07;;;;;;;-141.28;100.00;50377.31;5135152;27;20725;-78
2022/10/20 06:47:15;;;;;;;20.17;12.37;;;;;;;-141.28;100.00;50353.75;5135384;27;20206;-78
2022/10/20 06:49:44;;;;;;;19.10;12.60;;;;;;;-141.28;100.00;50375.34;5122053;27;20195;-77
2022/10/20 06:52:11;;;;;;;17.97;13.10;;;;;;;-141.28;100.00;50396.94;5135557;27;20198;-76
2022/10/20 06:54:38;;;;;;;23.27;13.23;;;;;;;-141.28;100.00;50342.00;5134796;27;20222;-77
2022/10/20 06:57:05;;;;;;;20.93;13.43;;;;;;;-141.28;100.00;50334.13;5135412;27;20230;-80
2022/10/20 06:59:34;;;;;;;16.20;12.77;;;;;;;-141.28;100.00;50318.44;5134837;27;20276;-76
2022/10/20 07:02:02;;;;;;;21.97;12.37;;;;;;;-141.28;100.00;50377.31;5134550;27;20693;-77
2022/10/20 07:04:29;;;;;;;17.27;12.60;;;;;;;-141.28;100.00;50330.22;5134785;27;20194;-79
2022/10/20 07:06:59;;;;;;;19.47;12.63;;;;;;;-141.28;100.00;50342.00;5135176;27;20740;-77
2022/10/20 07:09:26;;;;;;;17.50;11.83;;;;;;;-141.28;100.00;50275.25;5134431;27;20214;-76
2022/10/20 07:11:53;;;;;;;18.77;12.23;;;;;;;-141.28;100.00;50269.38;5134040;27;20226;-79
2022/10/20 07:14:20;;;;;;;16.23;12.30;;;;;;;-141.28;100.00;50279.19;5134748;27;20275;-77
2022/10/20 07:16:47;;;;;;;19.23;12.60;;;;;;;-141.28;100.00;50202.63;5134441;27;20209;-76
2022/10/20 07:19:14;;;;;;;16.13;12.07;;;;;;;-141.28;100.00;50251.69;5134504;27;20208;-80
2022/10/20 07:21:41;;;;;;;15.73;11.10;;;;;;;-141.28;100.00;50239.94;5115951;27;20725;-78
2022/10/20 07:24:10;;;;;;;21.53;12.27;;;;;;;-141.28;100.00;50247.78;5134602;27;20202;-76
2022/10/20 07:26:39;;;;;;;14.67;11.30;;;;;;;-141.28;100.00;50283.09;5134465;27;20635;-77
2022/10/20 07:29:06;;;;;;;15.43;11.33;;;;;;;-141.28;100.00;50279.19;5134793;27;20621;-76
2022/10/20 07:31:36;;;;;;;23.60;11.30;;;;;;;-141.28;100.00;50328.25;5134613;27;20190;-76
2022/10/20 07:34:05;;;;;;;17.83;11.27;;;;;;;-141.28;100.00;50298.81;5134769;27;20199;-75
2022/10/20 07:36:33;;;;;;;18.83;11.63;;;;;;;-141.28;100.00;50338.06;5135440;27;20194;-77
2022/10/20 07:39:02;;;;;;;15.27;11.73;;;;;;;-141.28;100.00;50342.00;5136532;27;20230;-77
2022/10/20 07:41:31;;;;;;;15.90;10.43;;;;;;;-141.28;100.00;50275.25;5136606;27;20221;-77
2022/10/20 07:46:41;;;;;;;12.80;10.77;;;;;;;-141.28;100.00;50271.31;5148240;27;20196;-74
2022/10/20 07:49:08;;;;;;;15.67;10.93;;;;;;;-141.28;100.00;50210.47;5150579;27;20185;-74
2022/10/20 07:51:35;;;;;;;14.17;10.93;;;;;;;-141.28;100.00;50184.97;5138808;27;20206;-76
2022/10/20 07:54:05;;;;;;;14.10;10.97;;;;;;;-141.28;100.00;50183.00;5158206;27;20187;-75
2022/10/20 07:56:37;;;;;;;17.57;10.87;;;;;;;-141.28;100.00;50149.63;5148353;27;20199;-75
2022/10/20 07:59:04;;;;;;;22.13;10.93;;;;;;;-141.28;100.00;50269.38;5137298;27;20319;-75
2022/10/20 08:01:32;;;;;;;16.50;9.93;;;;;;;-141.28;100.00;50457.78;5132187;27;20213;-74
2022/10/20 08:03:59;;;;;;;13.23;9.90;;;;;;;-141.28;100.00;50514.72;5142833;27;20198;-75
2022/10/20 08:06:27;;;;;;;16.83;9.87;;;;;;;-141.28;100.00;50377.31;5144444;27;20213;-75
2022/10/20 08:08:55;;;;;;;21.77;10.77;;;;;;;-141.28;100.00;50449.94;5124727;27;20217;-77
2022/10/20 08:11:22;;;;;;;16.33;9.97;;;;;;;-141.28;100.00;50534.34;5142695;27;20230;-73
2022/10/20 08:13:50;;;;;;;15.40;10.60;;;;;;;-141.28;100.00;50479.38;5145826;27;20652;-75
2022/10/20 08:16:18;;;;;;;23.57;10.37;;;;;;;-141.28;100.00;50424.44;5136019;27;20213;-78
2022/10/20 08:18:45;;;;;;;15.93;9.90;;;;;;;-141.28;100.00;50400.88;5134562;27;20261;-73
2022/10/20 08:21:15;;;;;;;16.10;9.07;;;;;;;-141.28;100.00;50357.69;5135158;27;20198;-76
2022/10/20 08:23:43;;;;;;;13.17;9.40;;;;;;;-141.28;100.00;50177.13;5133891;27;20704;-76
2022/10/20 08:26:10;;;;;;;11.13;9.23;;;;;;;-141.28;100.00;49973.00;5133596;27;20729;-76
2022/10/20 08:28:37;;;;;;;14.87;9.00;;;;;;;-141.28;100.00;50155.53;5132951;27;20557;-77
2022/10/20 08:31:08;;;;;;;10.57;8.90;;;;;;;-141.28;100.00;50212.44;5133317;27;20252;-75
2022/10/20 08:33:35;;;;;;;13.47;8.50;;;;;;;-141.28;100.00;50212.44;5120544;27;20202;-75
2022/10/20 08:36:05;;;;;;;15.17;8.57;;;;;;;-141.28;100.00;50208.53;5133021;27;20650;-76
2022/10/20 08:38:32;;;;;;;11.93;8.60;;;;;;;-141.28;100.00;50188.91;5132911;27;20612;-76
2022/10/20 08:41:00;;;;;;;11.90;8.20;;;;;;;-141.28;100.00;50137.88;5132648;27;20258;-77
2022/10/20 08:43:30;;;;;;;15.93;8.30;;;;;;;-141.28;100.00;50004.41;5132650;27;20243;-76
2022/10/20 08:45:57;;;;;;;12.00;7.53;;;;;;;-141.28;100.00;49839.56;5132845;27;20198;-79
2022/10/20 08:48:31;;;;;;;10.77;7.60;;;;;;;-141.28;100.00;49749.28;5136285;27;20252;-77
2022/10/20 08:50:58;;;;;;;13.53;7.47;;;;;;;-141.28;100.00;49721.81;5134264;27;20224;-75
2022/10/20 08:53:27;;;;;;;13.50;7.70;;;;;;;-141.28;100.00;49717.88;5132624;27;20657;-77
2022/10/20 08:55:55;;;;;;;12.40;7.53;;;;;;;-141.28;100.00;49678.63;5132104;27;20209;-77
2022/10/20 08:58:24;;;;;;;9.03;6.30;;;;;;;-141.28;100.00;49578.56;5132816;27;20230;-78
2022/10/20 09:00:56;;;;;;;11.90;6.70;;;;;;;-141.28;100.00;49449.03;5132336;27;20671;-75
2022/10/20 09:03:28;;;;;;;7.60;5.87;;;;;;;-141.28;100.00;49380.34;5132790;27;20202;-76
2022/10/20 09:05:58;;;;;;;6.53;5.83;;;;;;;-141.28;100.00;49313.66;5121326;27;20235;-77
2022/10/20 09:08:29;;;;;;;9.07;6.00;;;;;;;-141.28;100.00;49305.78;5132399;27;20305;-79
2022/10/20 09:11:06;;;;;;;9.73;6.60;;;;;;;-141.28;100.00;49223.38;5132604;27;20715;-76
2022/10/20 09:13:37;;;;;;;11.53;6.50;;;;;;;-141.28;100.00;49384.28;5132561;27;20544;-79
2022/10/20 09:16:07;;;;;;;7.77;6.30;;;;;;;-141.28;100.00;49451.00;5132485;27;20728;-76
2022/10/20 09:18:35;;;;;;;13.23;6.13;;;;;;;-141.28;100.00;49392.13;5132707;27;20230;-77
2022/10/20 09:21:05;;;;;;;8.80;5.43;;;;;;;-141.28;100.00;50029.91;5132558;28;20220;-76
2022/10/20 09:23:39;;;;;;;8.73;5.70;;;;;;;-141.28;100.00;49356.81;5132174;28;20568;-77
2022/10/20 09:26:13;;;;;;;9.20;5.60;;;;;;;-141.28;100.00;49337.19;5114271;28;20233;-76
2022/10/20 09:28:40;;;;;;;11.10;5.27;;;;;;;-141.28;100.00;49262.63;5133462;28;20205;-78
2022/10/20 09:31:22;;;;;;;6.80;5.10;;;;;;;-141.28;100.00;49294.03;5133543;28;20281;-77
2022/10/20 09:33:51;;;;;;;12.40;5.50;;;;;;;-141.28;100.00;49311.69;5135277;27;20209;-76
2022/10/20 09:36:20;;;;;;;10.80;5.23;;;;;;;-141.28;100.00;49243.00;5137916;27;20589;-79
2022/10/20 09:38:51;;;;;;;7.13;5.00;;;;;;;-141.28;100.00;49243.00;5137550;27;20684;-75
2022/10/20 09:41:20;;;;;;;6.53;4.80;;;;;;;-141.28;100.00;49305.78;5136484;27;20282;-76
2022/10/20 09:43:51;;;;;;;9.07;5.10;;;;;;;-141.28;100.00;49301.88;5136728;27;20643;-78
2022/10/20 09:46:23;;;;;;;6.77;4.77;;;;;;;-141.28;100.00;49294.03;5135778;27;20198;-78
2022/10/20 09:48:53;;;;;;;5.80;3.97;;;;;;;-141.28;100.00;49288.13;5136322;27;20202;-78
2022/10/20 09:51:24;;;;;;;10.73;4.40;;;;;;;-141.28;100.00;49311.69;5136020;27;20230;-76
2022/10/20 09:53:58;;;;;;;10.00;4.37;;;;;;;-141.28;100.00;49270.47;5136393;27;20237;-78
2022/10/20 09:56:30;;;;;;;11.20;4.70;;;;;;;-141.28;100.00;49244.97;5122897;27;20198;-75
2022/10/20 09:59:00;;;;;;;4.63;3.90;;;;;;;-141.28;98.44;49256.75;5135998;27;20262;-78
2022/10/20 10:01:27;;;;;;;4.93;4.10;;;;;;;-141.28;91.21;49237.13;5136160;27;20603;-77
2022/10/20 10:04:00;;;;;;;4.73;3.90;;;;;;;-141.28;88.21;49209.66;5136799;27;20228;-79
2022/10/20 10:06:40;;;;;;;6.70;3.73;;;;;;;-141.28;84.00;49186.09;5136125;27;20206;-77
2022/10/20 10:09:25;;;;;;;5.40;4.13;;;;;;;-141.28;78.89;49160.59;5136248;27;20397;-79
2022/10/20 10:11:59;;;;;;;6.37;3.80;;;;;;;-141.28;77.68;49199.84;5124704;27;20278;-77
2022/10/20 10:14:28;;;;;;;5.67;3.90;;;;;;;-141.28;81.66;49260.66;5135496;27;20206;-79
2022/10/20 10:16:54;;;;;;;8.40;3.90;;;;;;;-141.28;81.72;49239.09;5136057;27;20657;-76
2022/10/20 10:19:27;;;;;;;5.37;3.50;;;;;;;-141.28;78.67;49213.56;5135119;27;20218;-77
2022/10/20 10:21:56;;;;;;;5.50;3.90;;;;;;;-141.28;78.75;49239.09;5135654;27;20205;-80
2022/10/20 10:24:46;;;;;;;9.13;3.90;;;;;;;-141.28;76.61;49203.75;5138118;27;20307;-78
2022/10/20 10:27:25;;;;;;;4.83;3.70;;;;;;;-141.28;74.67;49239.09;5130145;27;20209;-76
2022/10/20 10:29:53;;;;;;;4.07;3.70;;;;;;;-141.28;75.86;49965.16;5135594;27;20716;-78
2022/10/20 10:32:25;;;;;;;4.10;3.53;;;;;;;-141.28;74.36;49101.72;5135056;27;20202;-80
2022/10/20 10:35:07;;;;;;;6.00;3.77;;;;;;;-141.28;72.31;49140.97;5134747;27;20313;-78
2022/10/20 10:37:37;;;;;;;4.03;3.63;;;;;;;-141.28;67.82;49074.25;5135176;27;20293;-76
2022/10/20 10:40:15;;;;;;;5.40;3.53;;;;;;;-141.28;68.78;49959.25;5135073;27;20287;-75
2022/10/20 10:43:06;;;;;;;5.53;3.73;;;;;;;-141.28;69.57;49129.19;5135228;27;20217;-76
2022/10/20 10:45:51;;;;;;;4.03;3.57;;;;;;;-141.28;70.43;49227.31;5133937;27;20289;-76
2022/10/20 10:48:36;;;;;;;4.27;3.73;;;;;;;-141.28;68.58;49221.41;5134756;27;20226;-77
2022/10/20 10:51:10;;;;;;;7.37;3.50;;;;;;;-141.28;70.09;49205.72;5134786;27;20233;-78
2022/10/20 10:53:50;;;;;;;4.53;3.50;;;;;;;-141.28;69.44;49211.59;5135208;27;20198;-75
2022/10/20 10:56:29;;;;;;;9.00;3.70;;;;;;;-141.28;68.29;49223.38;5135290;27;20582;-76
2022/10/20 10:58:58;;;;;;;10.57;3.87;;;;;;;-141.28;68.20;49203.75;5134829;27;20287;-78
2022/10/20 11:01:52;;;;;;;9.07;4.47;;;;;;;-141.28;67.01;49180.22;5134698;27;20301;-76
2022/10/20 11:04:48;;;;;;;7.50;4.43;;;;;;;-141.28;66.78;49219.47;5096100;27;20670;-78
2022/10/20 11:07:28;;;;;;;6.57;4.00;;;;;;;-141.28;66.99;49223.38;5134155;27;20205;-77
2022/10/20 11:10:05;;;;;;;7.70;3.80;;;;;;;-141.28;65.37;49364.66;5134484;27;20202;-77
2022/10/20 11:12:53;;;;;;;4.40;3.87;;;;;;;-141.28;62.96;49121.34;5134025;27;20607;-78
2022/10/20 11:15:33;;;;;;;4.33;3.40;;;;;;;-141.28;62.29;49160.59;5134525;27;20202;-80